createdAt,value
2017-03-04T00:01:09.015Z,19.34
2017-03-04T00:02:19.373Z,19.35
2017-03-04T00:03:29.748Z,19.37
2017-03-04T00:04:40.109Z,19.38
2017-03-04T00:05:50.857Z,19.35
2017-03-04T00:07:01.482Z,19.32
2017-03-04T00:08:11.472Z,19.35
2017-03-04T00:09:21.827Z,19.32
2017-03-04T00:10:31.788Z,19.35
2017-03-04T00:11:42.519Z,19.34
2017-03-04T00:12:53.524Z,19.38
2017-03-04T00:14:04.282Z,19.37
2017-03-04T00:15:14.660Z,19.35
2017-03-04T00:16:24.605Z,19.29
2017-03-04T00:17:35.360Z,19.35
2017-03-04T00:18:45.992Z,19.37
2017-03-04T00:19:56.744Z,19.32
2017-03-04T00:21:07.091Z,19.38
2017-03-04T00:22:17.882Z,19.32
2017-03-04T00:23:28.230Z,19.32
2017-03-04T00:24:39.274Z,19.34
2017-03-04T00:25:50.077Z,19.35
2017-03-04T00:27:00.822Z,19.32
2017-03-04T00:28:11.585Z,19.3
2017-03-04T00:29:21.940Z,19.34
2017-03-04T00:30:32.941Z,19.35
2017-03-04T00:31:42.506Z,19.41
2017-03-04T00:32:53.265Z,19.32
2017-03-04T00:34:03.642Z,19.42
2017-03-04T00:35:14.441Z,19.35
2017-03-04T00:36:25.053Z,19.32
2017-03-04T00:37:35.415Z,19.41
2017-03-04T00:38:45.048Z,19.34
2017-03-04T00:39:55.418Z,19.29
2017-03-04T00:41:06.174Z,19.35
2017-03-04T00:42:17.191Z,19.27
2017-03-04T00:43:27.936Z,19.3
2017-03-04T00:44:38.295Z,19.39
2017-03-04T00:45:49.083Z,19.37
2017-03-04T00:46:59.034Z,19.32
2017-03-04T00:48:09.699Z,19.35
2017-03-04T00:49:20.054Z,19.3
2017-03-04T00:50:30.413Z,19.34
2017-03-04T00:51:40.378Z,19.38
2017-03-04T00:52:50.753Z,19.32
2017-03-04T00:54:01.025Z,19.3
2017-03-04T00:55:11.479Z,19.3
2017-03-04T00:56:22.259Z,19.3
2017-03-04T00:57:33.011Z,19.34
2017-03-04T00:58:43.614Z,19.3
2017-03-04T00:59:53.811Z,19.35
2017-03-04T01:01:03.767Z,19.29
2017-03-04T01:02:14.561Z,19.26
2017-03-04T01:03:24.910Z,19.27
2017-03-04T01:04:35.662Z,19.29
2017-03-04T01:05:45.866Z,19.29
2017-03-04T01:06:56.618Z,19.27
2017-03-04T01:08:06.599Z,19.27
2017-03-04T01:09:16.567Z,19.34
2017-03-04T01:10:26.950Z,19.3
2017-03-04T01:11:38.022Z,19.32
2017-03-04T01:12:48.762Z,19.27
2017-03-04T01:13:58.760Z,19.3
2017-03-04T01:15:09.111Z,19.29
2017-03-04T01:16:19.527Z,19.23
2017-03-04T01:17:30.130Z,19.3
2017-03-04T01:18:40.507Z,19.29
2017-03-04T01:19:51.258Z,19.27
2017-03-04T01:21:01.620Z,19.27
2017-03-04T01:22:11.959Z,19.27
2017-03-04T01:23:22.557Z,19.26
2017-03-04T01:24:32.525Z,19.26
2017-03-04T01:25:43.289Z,19.24
2017-03-04T01:26:54.046Z,19.34
2017-03-04T01:28:04.407Z,19.22
2017-03-04T01:29:14.605Z,19.29
2017-03-04T01:30:24.982Z,19.29
2017-03-04T01:31:35.324Z,19.24
2017-03-04T01:32:46.083Z,19.27
2017-03-04T01:33:56.825Z,19.24
2017-03-04T01:35:07.839Z,19.23
2017-03-04T01:36:18.585Z,19.29
2017-03-04T01:37:28.951Z,19.24
2017-03-04T01:38:39.680Z,19.27
2017-03-04T01:39:50.466Z,19.23
2017-03-04T01:41:01.458Z,19.26
2017-03-04T01:42:12.211Z,19.23
2017-03-04T01:43:22.563Z,19.29
2017-03-04T01:44:33.321Z,19.26
2017-03-04T01:45:43.684Z,19.27
2017-03-04T01:46:53.962Z,19.32
2017-03-04T01:48:04.736Z,19.26
2017-03-04T01:49:15.088Z,19.27
2017-03-04T01:50:25.440Z,19.29
2017-03-04T01:51:35.799Z,19.32
2017-03-04T01:52:46.809Z,19.2
2017-03-04T01:53:57.148Z,19.24
2017-03-04T01:55:07.994Z,19.24
2017-03-04T01:56:18.339Z,19.29
2017-03-04T01:57:29.084Z,19.27
2017-03-04T01:58:39.705Z,19.24
2017-03-04T01:59:50.079Z,19.24
2017-03-04T02:01:00.829Z,19.24
2017-03-04T02:02:10.765Z,19.24
2017-03-04T02:03:20.431Z,19.35
2017-03-04T02:04:31.478Z,19.22
2017-03-04T02:05:42.239Z,19.3
2017-03-04T02:06:52.227Z,19.23
2017-03-04T02:08:02.614Z,19.2
2017-03-04T02:09:12.966Z,19.22
2017-03-04T02:10:23.177Z,19.26
2017-03-04T02:11:32.719Z,19.23
2017-03-04T02:12:43.473Z,19.17
2017-03-04T02:13:54.214Z,19.26
2017-03-04T02:15:04.588Z,19.2
2017-03-04T02:16:15.632Z,19.23
2017-03-04T02:17:26.020Z,19.26
2017-03-04T02:18:36.793Z,19.22
2017-03-04T02:19:47.138Z,19.2
2017-03-04T02:20:57.890Z,19.19
2017-03-04T02:22:08.888Z,19.26
2017-03-04T02:23:19.241Z,19.17
2017-03-04T02:24:29.986Z,19.17
2017-03-04T02:25:39.573Z,19.16
2017-03-04T02:26:50.451Z,19.23
2017-03-04T02:28:01.507Z,19.19
2017-03-04T02:29:12.300Z,19.2
2017-03-04T02:30:23.045Z,19.23
2017-03-04T02:31:33.003Z,19.12
2017-03-04T02:32:43.757Z,19.2
2017-03-04T02:33:54.758Z,19.19
2017-03-04T02:35:05.113Z,19.24
2017-03-04T02:36:15.055Z,19.19
2017-03-04T02:37:24.642Z,19.2
2017-03-04T02:38:34.207Z,19.16
2017-03-04T02:39:44.818Z,19.19
2017-03-04T02:40:55.196Z,19.2
2017-03-04T02:42:05.585Z,19.2
2017-03-04T02:43:16.348Z,19.16
2017-03-04T02:44:26.711Z,19.2
2017-03-04T02:45:37.746Z,19.22
2017-03-04T02:46:47.698Z,19.12
2017-03-04T02:47:58.450Z,19.16
2017-03-04T02:49:09.186Z,19.23
2017-03-04T02:50:19.548Z,19.2
2017-03-04T02:51:29.779Z,19.2
2017-03-04T02:52:39.737Z,19.17
2017-03-04T02:53:50.499Z,19.23
2017-03-04T02:55:00.899Z,19.22
2017-03-04T02:56:11.276Z,19.15
2017-03-04T02:57:21.906Z,19.15
2017-03-04T02:58:32.262Z,19.15
2017-03-04T02:59:42.617Z,19.15
2017-03-04T03:00:53.391Z,19.19
2017-03-04T03:02:04.159Z,19.16
2017-03-04T03:03:14.402Z,19.2
2017-03-04T03:04:25.019Z,19.22
2017-03-04T03:05:35.362Z,19.15
2017-03-04T03:06:46.156Z,19.17
2017-03-04T03:07:56.140Z,19.08
2017-03-04T03:09:06.370Z,19.17
2017-03-04T03:10:16.719Z,19.16
2017-03-04T03:11:27.491Z,19.17
2017-03-04T03:12:37.097Z,19.17
2017-03-04T03:13:47.862Z,19.15
2017-03-04T03:14:58.469Z,19.19
2017-03-04T03:16:09.215Z,19.15
2017-03-04T03:17:19.976Z,19.15
2017-03-04T03:18:30.737Z,19.19
2017-03-04T03:19:40.730Z,19.17
2017-03-04T03:20:51.734Z,19.05
2017-03-04T03:22:02.076Z,19.16
2017-03-04T03:23:12.841Z,19.22
2017-03-04T03:24:23.203Z,19.16
2017-03-04T03:25:33.164Z,19.15
2017-03-04T03:26:43.375Z,19.19
2017-03-04T03:27:53.750Z,19.12
2017-03-04T03:29:04.496Z,19.08
2017-03-04T03:30:14.845Z,19.09
2017-03-04T03:31:25.581Z,19.19
2017-03-04T03:32:36.626Z,19.05
2017-03-04T03:33:47.372Z,19.16
2017-03-04T03:34:57.836Z,19.15
2017-03-04T03:36:08.175Z,19.04
2017-03-04T03:37:18.563Z,19.17
2017-03-04T03:38:28.787Z,19.17
2017-03-04T03:39:39.537Z,19.12
2017-03-04T03:40:49.904Z,19.17
2017-03-04T03:42:00.672Z,19.05
2017-03-04T03:43:11.458Z,19.09
2017-03-04T03:44:22.438Z,19.11
2017-03-04T03:45:32.797Z,19.08
2017-03-04T03:46:43.184Z,19.07
2017-03-04T03:47:53.549Z,19.08
2017-03-04T03:49:04.309Z,19.12
2017-03-04T03:50:14.982Z,19.04
2017-03-04T03:51:25.338Z,19.11
2017-03-04T03:52:35.706Z,19.05
2017-03-04T03:53:45.658Z,19.05
2017-03-04T03:54:56.437Z,19.11
2017-03-04T03:56:07.106Z,19.12
2017-03-04T03:57:17.879Z,19.05
2017-03-04T03:58:28.621Z,19.08
2017-03-04T03:59:39.355Z,19.11
2017-03-04T04:00:49.732Z,19.07
2017-03-04T04:01:59.946Z,19.07
2017-03-04T04:03:10.701Z,19.04
2017-03-04T04:04:21.060Z,19.05
2017-03-04T04:05:31.418Z,19.05
2017-03-04T04:06:42.173Z,19.16
2017-03-04T04:07:52.048Z,19.07
2017-03-04T04:09:02.845Z,19.04
2017-03-04T04:10:12.781Z,19.16
2017-03-04T04:11:23.530Z,19.08
2017-03-04T04:12:34.280Z,19.07
2017-03-04T04:13:45.319Z,19.08
2017-03-04T04:14:56.064Z,19.07
2017-03-04T04:16:06.806Z,19.07
2017-03-04T04:17:17.553Z,19.08
2017-03-04T04:18:27.525Z,19.12
2017-03-04T04:19:38.500Z,19.05
2017-03-04T04:20:49.256Z,19.05
2017-03-04T04:21:59.722Z,19.04
2017-03-04T04:23:10.488Z,19.08
2017-03-04T04:24:21.354Z,19.05
2017-03-04T04:25:32.352Z,19.08
2017-03-04T04:26:43.088Z,19.07
2017-03-04T04:27:53.831Z,19.08
2017-03-04T04:29:04.179Z,19.07
2017-03-04T04:30:14.527Z,19.04
2017-03-04T04:31:25.190Z,19.01
2017-03-04T04:32:35.529Z,19.08
2017-03-04T04:33:45.094Z,19.12
2017-03-04T04:34:55.091Z,19.08
2017-03-04T04:36:05.452Z,19.08
2017-03-04T04:37:16.076Z,19.08
2017-03-04T04:38:26.419Z,19.11
2017-03-04T04:39:37.196Z,19.11
2017-03-04T04:40:47.939Z,19.05
2017-03-04T04:41:58.672Z,19.04
2017-03-04T04:43:08.890Z,19.08
2017-03-04T04:44:19.619Z,19.01
2017-03-04T04:45:29.580Z,19.07
2017-03-04T04:46:40.352Z,19
2017-03-04T04:47:50.716Z,19.04
2017-03-04T04:49:00.938Z,19.04
2017-03-04T04:50:11.699Z,19.04
2017-03-04T04:51:22.454Z,19.07
2017-03-04T04:52:33.196Z,19.09
2017-03-04T04:53:43.935Z,19.01
2017-03-04T04:54:54.124Z,19.12
2017-03-04T04:56:04.469Z,19.11
2017-03-04T04:57:14.816Z,19.08
2017-03-04T04:58:25.164Z,19.04
2017-03-04T04:59:35.503Z,19.09
2017-03-04T05:00:46.498Z,19.11
2017-03-04T05:01:57.248Z,19.08
2017-03-04T05:03:07.983Z,19.01
2017-03-04T05:04:17.528Z,19
2017-03-04T05:05:27.893Z,19.07
2017-03-04T05:06:38.095Z,19.11
2017-03-04T05:07:48.441Z,19.05
2017-03-04T05:08:58.793Z,19.01
2017-03-04T05:10:09.158Z,19.08
2017-03-04T05:11:19.892Z,19.07
2017-03-04T05:12:30.105Z,19.07
2017-03-04T05:13:40.857Z,19.05
2017-03-04T05:14:51.612Z,19.07
2017-03-04T05:16:02.355Z,19.04
2017-03-04T05:17:12.296Z,19.08
2017-03-04T05:18:22.943Z,19
2017-03-04T05:19:33.704Z,19.05
2017-03-04T05:20:43.663Z,19.08
2017-03-04T05:21:53.212Z,19.01
2017-03-04T05:23:03.976Z,19.16
2017-03-04T05:24:14.569Z,19.07
2017-03-04T05:25:25.307Z,19.17
2017-03-04T05:26:34.870Z,19.11
2017-03-04T05:27:44.418Z,19
2017-03-04T05:28:55.177Z,19.08
2017-03-04T05:30:05.001Z,19.16
2017-03-04T05:31:15.353Z,19.08
2017-03-04T05:32:25.718Z,19.08
2017-03-04T05:33:35.685Z,19.05
2017-03-04T05:34:46.035Z,19.01
2017-03-04T05:35:56.662Z,19.07
2017-03-04T05:37:07.014Z,19.08
2017-03-04T05:38:17.363Z,19.16
2017-03-04T05:39:27.721Z,19.05
2017-03-04T05:40:38.498Z,19.08
2017-03-04T05:41:49.097Z,19.11
2017-03-04T05:42:59.586Z,19.05
2017-03-04T05:44:10.338Z,19.01
2017-03-04T05:45:20.681Z,19.16
2017-03-04T05:46:31.452Z,19.12
2017-03-04T05:47:42.057Z,19.19
2017-03-04T05:48:52.005Z,19.23
2017-03-04T05:50:02.370Z,19.16
2017-03-04T05:51:12.757Z,19.19
2017-03-04T05:52:23.506Z,19.07
2017-03-04T05:53:33.763Z,19.05
2017-03-04T05:54:44.130Z,19.09
2017-03-04T05:55:54.492Z,19
2017-03-04T05:57:04.886Z,19.12
2017-03-04T05:58:14.438Z,19.05
2017-03-04T05:59:25.480Z,19.08
2017-03-04T06:00:35.426Z,19.08
2017-03-04T06:01:46.194Z,19.05
2017-03-04T06:02:56.565Z,19.19
2017-03-04T06:04:06.921Z,19.17
2017-03-04T06:05:18.188Z,19.08
2017-03-04T06:06:28.943Z,19.07
2017-03-04T06:07:39.311Z,19.19
2017-03-04T06:08:50.064Z,19.07
2017-03-04T06:10:00.028Z,19.08
2017-03-04T06:11:11.078Z,19.07
2017-03-04T06:12:21.826Z,19.04
2017-03-04T06:13:32.562Z,19.07
2017-03-04T06:14:43.324Z,19.11
2017-03-04T06:15:53.679Z,19.12
2017-03-04T06:17:04.677Z,19.17
2017-03-04T06:18:15.458Z,19.15
2017-03-04T06:19:25.420Z,19.2
2017-03-04T06:20:35.778Z,19.05
2017-03-04T06:21:46.140Z,19.15
2017-03-04T06:22:56.743Z,19.2
2017-03-04T06:24:07.494Z,19.08
2017-03-04T06:25:17.900Z,19.17
2017-03-04T06:26:27.874Z,19.12
2017-03-04T06:27:37.884Z,19.16
2017-03-04T06:28:48.882Z,19.12
2017-03-04T06:29:59.651Z,19.19
2017-03-04T06:31:10.069Z,19.17
2017-03-04T06:32:20.851Z,19.16
2017-03-04T06:33:31.177Z,19.16
2017-03-04T06:34:41.615Z,19.05
2017-03-04T06:35:51.957Z,19.16
2017-03-04T06:37:01.512Z,19.04
2017-03-04T06:38:12.294Z,19.15
2017-03-04T06:39:23.049Z,19.19
2017-03-04T06:40:33.704Z,19.07
2017-03-04T06:41:43.673Z,19.09
2017-03-04T06:42:53.653Z,19.12
2017-03-04T06:44:03.602Z,19.2
2017-03-04T06:45:13.565Z,19.11
2017-03-04T06:46:24.236Z,19.11
2017-03-04T06:47:34.601Z,19.17
2017-03-04T06:48:44.969Z,19.19
2017-03-04T06:49:55.330Z,19.11
2017-03-04T06:51:06.077Z,19.12
2017-03-04T06:52:17.077Z,19.07
2017-03-04T06:53:27.832Z,19.16
2017-03-04T06:54:38.220Z,19.15
2017-03-04T06:55:48.572Z,19.2
2017-03-04T06:56:59.308Z,19.16
2017-03-04T06:58:10.313Z,19.16
2017-03-04T06:59:21.065Z,19.16
2017-03-04T07:00:31.031Z,19.2
2017-03-04T07:01:41.798Z,19.16
2017-03-04T07:02:52.151Z,19.17
2017-03-04T07:04:03.187Z,19.17
2017-03-04T07:05:13.144Z,19.17
2017-03-04T07:06:23.491Z,19.2
2017-03-04T07:07:33.849Z,19.2
2017-03-04T07:08:44.227Z,19.15
2017-03-04T07:09:54.831Z,19.17
2017-03-04T07:11:04.883Z,19.19
2017-03-04T07:12:14.870Z,19.2
2017-03-04T07:13:25.212Z,19.17
2017-03-04T07:14:35.587Z,19.15
2017-03-04T07:15:46.649Z,19.19
2017-03-04T07:16:56.998Z,19.2
2017-03-04T07:18:07.753Z,19.19
2017-03-04T07:19:18.115Z,19.19
2017-03-04T07:20:28.876Z,19.22
2017-03-04T07:21:39.523Z,19.22
2017-03-04T07:22:49.887Z,19.2
2017-03-04T07:24:00.647Z,19.23
2017-03-04T07:25:10.614Z,19.19
2017-03-04T07:26:21.371Z,19.19
2017-03-04T07:27:32.613Z,19.19
2017-03-04T07:28:42.969Z,19.2
2017-03-04T07:29:53.728Z,19.19
2017-03-04T07:31:03.689Z,19.29
2017-03-04T07:32:14.447Z,19.23
2017-03-04T07:33:25.046Z,19.2
2017-03-04T07:34:35.423Z,19.22
2017-03-04T07:35:45.767Z,19.24
2017-03-04T07:36:56.118Z,19.17
2017-03-04T07:38:06.086Z,19.24
2017-03-04T07:39:17.110Z,19.22
2017-03-04T07:40:27.878Z,19.22
2017-03-04T07:41:37.843Z,19.24
2017-03-04T07:42:48.223Z,19.24
2017-03-04T07:43:58.611Z,19.22
2017-03-04T07:45:09.615Z,19.24
2017-03-04T07:46:19.587Z,19.3
2017-03-04T07:47:29.960Z,19.26
2017-03-04T07:48:40.713Z,19.27
2017-03-04T07:49:50.681Z,19.19
2017-03-04T07:51:01.345Z,19.26
2017-03-04T07:52:12.101Z,19.19
2017-03-04T07:53:22.144Z,19.23
2017-03-04T07:54:32.510Z,19.23
2017-03-04T07:55:42.872Z,19.29
2017-03-04T07:56:53.472Z,19.17
2017-03-04T07:58:04.232Z,19.24
2017-03-04T07:59:14.222Z,19.27
2017-03-04T08:00:24.229Z,19.23
2017-03-04T08:01:34.997Z,19.29
2017-03-04T08:02:45.989Z,19.2
2017-03-04T08:03:55.973Z,19.26
2017-03-04T08:05:06.738Z,19.24
2017-03-04T08:06:17.515Z,19.27
2017-03-04T08:07:27.865Z,19.29
2017-03-04T08:08:38.936Z,19.22
2017-03-04T08:09:49.708Z,19.27
2017-03-04T08:11:00.446Z,19.29
2017-03-04T08:12:11.202Z,19.26
2017-03-04T08:13:21.964Z,19.29
2017-03-04T08:14:32.965Z,19.26
2017-03-04T08:15:43.320Z,19.27
2017-03-04T08:16:54.066Z,19.29
2017-03-04T08:18:04.814Z,19.34
2017-03-04T08:19:15.599Z,19.29
2017-03-04T08:20:26.638Z,19.29
2017-03-04T08:21:37.380Z,19.34
2017-03-04T08:22:47.736Z,19.27
2017-03-04T08:23:57.701Z,19.26
2017-03-04T08:25:08.057Z,19.3
2017-03-04T08:26:18.684Z,19.3
2017-03-04T08:27:29.029Z,19.3
2017-03-04T08:28:39.384Z,19.27
2017-03-04T08:29:50.121Z,19.34
2017-03-04T08:31:00.092Z,19.27
2017-03-04T08:32:10.696Z,19.34
2017-03-04T08:33:21.478Z,19.32
2017-03-04T08:34:32.246Z,19.27
2017-03-04T08:35:42.644Z,19.3
2017-03-04T08:36:53.030Z,19.3
2017-03-04T08:38:03.726Z,19.41
2017-03-04T08:39:13.712Z,19.3
2017-03-04T08:40:24.491Z,19.38
2017-03-04T08:41:34.950Z,19.3
2017-03-04T08:42:45.286Z,19.32
2017-03-04T08:43:55.897Z,19.3
2017-03-04T08:45:06.502Z,19.39
2017-03-04T08:46:17.304Z,19.37
2017-03-04T08:47:28.069Z,19.37
2017-03-04T08:48:38.829Z,19.35
2017-03-04T08:49:49.441Z,19.34
2017-03-04T08:50:59.799Z,19.42
2017-03-04T08:52:10.556Z,19.37
2017-03-04T08:53:20.504Z,19.32
2017-03-04T08:54:31.263Z,19.34
2017-03-04T08:55:42.313Z,19.39
2017-03-04T08:56:52.674Z,19.34
2017-03-04T08:58:02.651Z,19.49
2017-03-04T08:59:12.642Z,19.39
2017-03-04T09:00:23.011Z,19.38
2017-03-04T09:01:33.619Z,19.41
2017-03-04T09:02:43.992Z,19.48
2017-03-04T09:03:53.965Z,19.42
2017-03-04T09:05:04.774Z,19.48
2017-03-04T09:06:15.221Z,19.45
2017-03-04T09:07:26.262Z,19.41
2017-03-04T09:08:36.633Z,19.42
2017-03-04T09:09:46.207Z,19.37
2017-03-04T09:10:56.963Z,19.49
2017-03-04T09:12:07.350Z,19.45
2017-03-04T09:13:18.481Z,19.48
2017-03-04T09:14:28.444Z,19.47
2017-03-04T09:15:38.808Z,19.38
2017-03-04T09:16:49.544Z,19.42
2017-03-04T09:18:00.319Z,19.48
2017-03-04T09:19:10.546Z,19.44
2017-03-04T09:20:20.553Z,19.42
2017-03-04T09:21:31.292Z,19.42
2017-03-04T09:22:41.667Z,19.45
2017-03-04T09:23:52.060Z,19.39
2017-03-04T09:25:02.716Z,19.56
2017-03-04T09:26:13.095Z,19.42
2017-03-04T09:27:23.490Z,19.55
2017-03-04T09:28:33.831Z,19.52
2017-03-04T09:29:44.169Z,19.44
2017-03-04T09:30:55.161Z,19.47
2017-03-04T09:32:05.145Z,19.39
2017-03-04T09:33:15.497Z,19.39
2017-03-04T09:34:25.847Z,19.47
2017-03-04T09:35:36.606Z,19.45
2017-03-04T09:36:46.889Z,19.45
2017-03-04T09:37:56.861Z,19.41
2017-03-04T09:39:07.638Z,19.41
2017-03-04T09:40:18.009Z,19.44
2017-03-04T09:41:28.784Z,19.52
2017-03-04T09:42:39.437Z,19.53
2017-03-04T09:43:49.788Z,19.45
2017-03-04T09:44:59.749Z,19.41
2017-03-04T09:46:10.533Z,19.41
2017-03-04T09:47:21.280Z,19.47
2017-03-04T09:48:31.935Z,19.52
2017-03-04T09:49:42.713Z,19.53
2017-03-04T09:50:53.061Z,19.53
2017-03-04T09:52:03.404Z,19.53
2017-03-04T09:53:13.752Z,19.52
2017-03-04T09:54:23.999Z,19.56
2017-03-04T09:55:34.364Z,19.53
2017-03-04T09:56:45.100Z,19.49
2017-03-04T09:57:55.881Z,19.56
2017-03-04T09:59:05.869Z,19.57
2017-03-04T10:00:16.578Z,19.52
2017-03-04T10:01:27.347Z,19.49
2017-03-04T10:02:38.095Z,19.55
2017-03-04T10:03:48.486Z,19.57
2017-03-04T10:04:59.260Z,19.63
2017-03-04T10:06:09.904Z,19.6
2017-03-04T10:07:19.903Z,19.59
2017-03-04T10:08:30.291Z,19.59
2017-03-04T10:09:39.852Z,19.53
2017-03-04T10:10:50.234Z,19.59
2017-03-04T10:12:01.282Z,19.59
2017-03-04T10:13:11.622Z,19.55
2017-03-04T10:14:21.993Z,19.62
2017-03-04T10:15:31.587Z,19.57
2017-03-04T10:16:41.555Z,19.56
2017-03-04T10:17:52.185Z,19.56
2017-03-04T10:19:02.579Z,19.55
2017-03-04T10:20:12.953Z,19.6
2017-03-04T10:21:23.354Z,19.55
2017-03-04T10:22:34.124Z,19.55
2017-03-04T10:23:44.800Z,19.56
2017-03-04T10:24:55.671Z,19.62
2017-03-04T10:26:06.046Z,19.62
2017-03-04T10:27:16.016Z,19.62
2017-03-04T10:28:25.990Z,19.59
2017-03-04T10:29:36.650Z,19.63
2017-03-04T10:30:47.395Z,19.57
2017-03-04T10:31:57.379Z,19.64
2017-03-04T10:33:08.125Z,19.64
2017-03-04T10:34:18.906Z,19.71
2017-03-04T10:35:29.516Z,19.67
2017-03-04T10:36:39.875Z,19.7
2017-03-04T10:37:50.243Z,19.67
2017-03-04T10:39:01.021Z,19.66
2017-03-04T10:40:10.983Z,19.67
2017-03-04T10:41:21.590Z,19.67
2017-03-04T10:42:32.355Z,19.66
2017-03-04T10:43:43.123Z,19.71
2017-03-04T10:44:53.484Z,19.7
2017-03-04T10:46:04.254Z,19.7
2017-03-04T10:47:15.315Z,19.71
2017-03-04T10:48:24.876Z,19.7
2017-03-04T10:49:34.841Z,19.74
2017-03-04T10:50:45.623Z,19.72
2017-03-04T10:51:55.997Z,19.66
2017-03-04T10:53:07.014Z,19.75
2017-03-04T10:54:17.796Z,19.71
2017-03-04T10:55:28.188Z,19.71
2017-03-04T10:56:38.551Z,19.72
2017-03-04T10:57:48.147Z,19.67
2017-03-04T10:58:58.368Z,19.66
2017-03-04T11:00:08.755Z,19.75
2017-03-04T11:01:19.136Z,19.77
2017-03-04T11:02:29.507Z,19.71
2017-03-04T11:03:39.875Z,19.75
2017-03-04T11:04:50.931Z,19.79
2017-03-04T11:06:00.901Z,19.67
2017-03-04T11:07:10.864Z,19.67
2017-03-04T11:08:21.622Z,19.66
2017-03-04T11:09:32.381Z,19.79
2017-03-04T11:10:43.015Z,19.82
2017-03-04T11:11:53.785Z,19.79
2017-03-04T11:13:03.734Z,19.75
2017-03-04T11:14:14.118Z,19.75
2017-03-04T11:15:24.848Z,19.79
2017-03-04T11:16:35.513Z,19.79
2017-03-04T11:17:45.859Z,19.72
2017-03-04T11:18:56.225Z,19.82
2017-03-04T11:20:06.834Z,19.82
2017-03-04T11:21:16.793Z,19.77
2017-03-04T11:22:27.405Z,19.78
2017-03-04T11:23:37.370Z,19.81
2017-03-04T11:24:48.135Z,19.78
2017-03-04T11:25:58.527Z,19.81
2017-03-04T11:27:09.301Z,19.79
2017-03-04T11:28:20.358Z,19.81
2017-03-04T11:29:30.320Z,19.75
2017-03-04T11:30:41.190Z,19.75
2017-03-04T11:31:51.548Z,19.75
2017-03-04T11:33:01.904Z,19.89
2017-03-04T11:34:12.495Z,19.78
2017-03-04T11:35:23.240Z,19.78
2017-03-04T11:36:34.005Z,19.81
2017-03-04T11:37:43.964Z,19.87
2017-03-04T11:38:54.761Z,19.81
2017-03-04T11:40:05.411Z,19.84
2017-03-04T11:41:15.778Z,19.85
2017-03-04T11:42:26.553Z,19.87
2017-03-04T11:43:36.912Z,19.87
2017-03-04T11:44:47.666Z,19.85
2017-03-04T11:45:57.928Z,19.85
2017-03-04T11:47:08.696Z,19.85
2017-03-04T11:48:19.062Z,19.89
2017-03-04T11:49:29.827Z,19.94
2017-03-04T11:50:40.608Z,19.99
2017-03-04T11:51:51.238Z,19.82
2017-03-04T11:53:01.213Z,19.82
2017-03-04T11:54:11.173Z,19.82
2017-03-04T11:55:21.935Z,19.87
2017-03-04T11:56:32.723Z,19.94
2017-03-04T11:57:43.343Z,19.96
2017-03-04T11:58:53.704Z,19.92
2017-03-04T12:00:04.484Z,19.89
2017-03-04T12:01:15.231Z,19.97
2017-03-04T12:02:25.182Z,19.85
2017-03-04T12:03:35.810Z,19.89
2017-03-04T12:04:46.187Z,19.84
2017-03-04T12:05:56.955Z,20
2017-03-04T12:07:07.307Z,19.82
2017-03-04T12:08:17.726Z,19.92
2017-03-04T12:09:28.396Z,19.93
2017-03-04T12:10:38.765Z,19.9
2017-03-04T12:11:48.770Z,19.92
2017-03-04T12:12:59.121Z,19.94
2017-03-04T12:14:09.892Z,19.99
2017-03-04T12:15:20.947Z,19.96
2017-03-04T12:16:31.721Z,20.07
2017-03-04T12:17:42.460Z,20.03
2017-03-04T12:18:52.837Z,20
2017-03-04T12:20:03.186Z,20.02
2017-03-04T12:21:13.816Z,19.93
2017-03-04T12:22:24.598Z,19.94
2017-03-04T12:23:35.364Z,19.94
2017-03-04T12:24:45.714Z,20.04
2017-03-04T12:25:56.489Z,19.97
2017-03-04T12:27:07.499Z,20.03
2017-03-04T12:28:17.890Z,19.99
2017-03-04T12:29:28.239Z,19.96
2017-03-04T12:30:38.639Z,19.97
2017-03-04T12:31:48.222Z,20.02
2017-03-04T12:32:59.298Z,19.99
2017-03-04T12:34:08.879Z,20.07
2017-03-04T12:35:19.229Z,20.07
2017-03-04T12:36:29.625Z,20
2017-03-04T12:37:39.614Z,20.07
2017-03-04T12:38:50.683Z,20.1
2017-03-04T12:40:01.049Z,20.03
2017-03-04T12:41:11.036Z,20.02
2017-03-04T12:42:21.800Z,20.02
2017-03-04T12:43:32.558Z,20.02
2017-03-04T12:44:43.606Z,20.1
2017-03-04T12:45:54.374Z,19.94
2017-03-04T12:47:04.721Z,20.02
2017-03-04T12:48:15.496Z,20.07
2017-03-04T12:49:25.849Z,19.97
2017-03-04T12:50:36.836Z,20.03
2017-03-04T12:51:47.585Z,20.03
2017-03-04T12:52:57.960Z,20.17
2017-03-04T12:54:08.742Z,20.11
2017-03-04T12:55:19.524Z,20.12
2017-03-04T12:56:30.600Z,20.11
2017-03-04T12:57:41.351Z,20.07
2017-03-04T12:58:51.701Z,20.14
2017-03-04T13:00:02.071Z,20.12
2017-03-04T13:01:12.859Z,20.12
2017-03-04T13:02:23.867Z,20.04
2017-03-04T13:03:34.225Z,20.08
2017-03-04T13:04:44.205Z,20.1
2017-03-04T13:05:54.289Z,20.12
2017-03-04T13:07:04.255Z,20.07
2017-03-04T13:08:14.927Z,20.12
2017-03-04T13:09:25.688Z,20.08
2017-03-04T13:10:36.450Z,20.08
2017-03-04T13:11:47.205Z,20.15
2017-03-04T13:12:57.989Z,20.1
2017-03-04T13:14:08.616Z,20.1
2017-03-04T13:15:18.611Z,20.12
2017-03-04T13:16:29.373Z,20.1
2017-03-04T13:17:39.771Z,20.11
2017-03-04T13:18:49.731Z,20.14
2017-03-04T13:20:00.734Z,20.11
2017-03-04T13:21:11.082Z,20.07
2017-03-04T13:22:21.848Z,20.11
2017-03-04T13:23:32.210Z,20.11
2017-03-04T13:24:43.020Z,20.11
2017-03-04T13:25:53.640Z,20.11
2017-03-04T13:27:04.379Z,20.12
2017-03-04T13:28:15.174Z,20.11
2017-03-04T13:29:25.595Z,20.15
2017-03-04T13:30:35.986Z,20.12
2017-03-04T13:31:46.665Z,20.11
2017-03-04T13:32:57.439Z,20.11
2017-03-04T13:34:08.193Z,20.12
2017-03-04T13:35:18.219Z,20.11
2017-03-04T13:36:28.584Z,20.12
2017-03-04T13:37:39.630Z,20.14
2017-03-04T13:38:50.379Z,20.19
2017-03-04T13:39:59.980Z,20.14
2017-03-04T13:41:10.738Z,20.12
2017-03-04T13:42:20.711Z,20.12
2017-03-04T13:43:31.768Z,20.14
2017-03-04T13:44:42.123Z,20.19
2017-03-04T13:45:52.491Z,20.12
2017-03-04T13:47:02.847Z,20.1
2017-03-04T13:48:13.199Z,20.1
2017-03-04T13:49:23.819Z,20.14
2017-03-04T13:50:34.577Z,20.14
2017-03-04T13:51:44.584Z,20.17
2017-03-04T13:52:54.939Z,20.19
2017-03-04T13:54:05.328Z,20.15
2017-03-04T13:55:15.986Z,20.24
2017-03-04T13:56:26.344Z,20.18
2017-03-04T13:57:37.093Z,20.12
2017-03-04T13:58:47.457Z,20.22
2017-03-04T13:59:57.423Z,20.19
2017-03-04T14:01:07.647Z,20.15
2017-03-04T14:02:17.602Z,20.24
2017-03-04T14:03:27.569Z,20.22
2017-03-04T14:04:37.535Z,20.19
2017-03-04T14:05:47.515Z,20.24
2017-03-04T14:06:57.982Z,20.24
2017-03-04T14:08:08.722Z,20.19
2017-03-04T14:09:19.523Z,20.26
2017-03-04T14:10:29.861Z,20.19
2017-03-04T14:11:39.845Z,20.27
2017-03-04T14:12:50.492Z,20.24
2017-03-04T14:14:00.857Z,20.21
2017-03-04T14:15:11.615Z,20.27
2017-03-04T14:16:21.993Z,20.21
2017-03-04T14:17:32.738Z,20.21
2017-03-04T14:18:43.803Z,20.19
2017-03-04T14:19:54.172Z,20.17
2017-03-04T14:21:04.524Z,20.22
2017-03-04T14:22:14.926Z,20.26
2017-03-04T14:23:25.682Z,20.22
2017-03-04T14:24:36.347Z,20.19
2017-03-04T14:25:46.702Z,20.18
2017-03-04T14:26:57.036Z,20.21
2017-03-04T14:28:07.010Z,20.24
2017-03-04T14:29:16.961Z,20.24
2017-03-04T14:30:27.967Z,20.19
2017-03-04T14:31:38.324Z,20.21
2017-03-04T14:32:47.896Z,20.17
2017-03-04T14:33:57.457Z,20.17
2017-03-04T14:35:08.223Z,20.26
2017-03-04T14:36:18.040Z,20.21
2017-03-04T14:37:28.428Z,20.21
2017-03-04T14:38:38.834Z,20.21
2017-03-04T14:39:48.796Z,20.19
2017-03-04T14:40:58.783Z,20.17
2017-03-04T14:42:09.000Z,20.22
2017-03-04T14:43:19.746Z,20.22
2017-03-04T14:44:30.095Z,20.19
2017-03-04T14:45:40.063Z,20.19
2017-03-04T14:46:50.833Z,20.22
2017-03-04T14:48:01.103Z,20.17
2017-03-04T14:49:11.480Z,20.21
2017-03-04T14:50:22.290Z,20.17
2017-03-04T14:51:32.254Z,20.22
2017-03-04T14:52:42.210Z,20.21
2017-03-04T14:53:52.417Z,20.17
2017-03-04T14:55:02.792Z,20.27
2017-03-04T14:56:13.151Z,20.22
2017-03-04T14:57:23.490Z,20.24
2017-03-04T14:58:33.851Z,20.27
2017-03-04T14:59:45.006Z,20.3
2017-03-04T15:00:55.371Z,20.21
2017-03-04T15:02:05.720Z,20.21
2017-03-04T15:03:15.669Z,20.26
2017-03-04T15:04:26.408Z,20.27
2017-03-04T15:05:37.471Z,20.19
2017-03-04T15:06:47.792Z,20.24
2017-03-04T15:07:58.539Z,20.21
2017-03-04T15:09:09.276Z,20.21
2017-03-04T15:10:18.847Z,20.29
2017-03-04T15:11:29.041Z,20.22